Welcome to our Virtual Airline
Sign-in:

Flight MFC33161

  • Submitted By: John Dean
  • Departure Airport: Kaltag (KAL)
  • Arrival Airport: Anvik (PANV)
  • Aircraft: AC 500 (NAC500MM)
  • Flight Time: 00.51.24
  • Date Submitted: 2019/08/23
  • Route: STOP-OVER AT GRAYLING (KGX)
  • Status: Accepted
Flight Details
Gross Revenue:
(3 load / $ 108.00 per unit
$ 324.00
Fuel Cost:
(62.1422 fuel used @ 5.1 / unit)
$ 316.93

Additional Log Information:

View Log

FS[10:38] ----- Flight Opened -----
FS[10:38] Cigar Box - 1.1.4.0
FS[10:38] FS: FSX
FS[10:38] FSUIPC: v4.973
FS[10:38] Flight Number: MFC33161
FS[10:38] FS Aircraft: AC500 N687AK
FS[10:38] FS Model: AC500
FS[10:38] FS Type: ROCKWELL
FS[10:38] Departure: KAL
FS[10:38] Arrival: PANV
FS[10:38] Flight Level: 2500
FS[10:38] Flight Type: H
FS[10:38] Passengers: 3
FS[10:38] FOB: 789 lbs
FS[10:38] Gate: 1 - KAL
FS[10:38] Crash Detection: Disabled
FS[10:38] Crash Detection Aircraft: Disabled
FS[10:38] Engines: 2 Piston
FS[10:38] NOTE: Boarding has started
FS[10:38] FS: Paused
FS[10:38] Parking Brake: Engaged
FS[10:38] Main Door Open
FS[10:38] COM1: 122.90
FS[10:38] COM2: 127.80
FS[10:38] Transponder: 1200
FS[10:38] NAV1: 113.70
FS[10:38] NAV2: 110.60
FS[10:38] ADF1: 284.0
FS[10:38] ADF2: 240.0
FS[10:38] Navigation Mode: GPS
FS[10:38] Navigation Mode: GPS
FS[10:38] FS: Unpaused
FS[10:38] Main Door Closed
FS[10:38] Engine 1: Started
FS[10:38] Engine 2: Started
FS[10:39] Light Data: Navigation ON
FS[10:39] Light Data: Beacon ON
FS[10:39] Light Data: Landing lights ON
FS[10:39] Light Data: Taxi lights ON
FS[10:39] Light Data: Strobe lights ON
FS[10:39] Light Data: Instrument lights ON
FS[10:39] Light Data: Recognition lights ON
FS[10:39] Light Data: Wing lights ON
FS[10:39] Light Data: Logo lights ON
FS[10:39] Light Data: Cabin lights ON
FS[10:40] Parking Brake: Released
FS[10:40] NOTE: Taxi started
FS[10:42] NOTE: ----- TAKE OFF -----
FS[10:42] GS: 81 knots
FS[10:42] TAS: 82 knots
FS[10:42] IAS: 82 knots
FS[10:42] VS: 26 fpm
FS[10:42] FOB: 786 lbs
FS[10:42] Heading: 227°
FS[10:42] Pitch: 7°
FS[10:42] Bank: 0°
FS[10:42] Aircraft Weight: 5446.89 lbs
FS[10:42] Nearest Airport: KAL
FS[10:42] Distance: 0.24 miles
FS[10:42] Runway: ???
FS[10:42] Ground Surface: Gravel
FS[10:42] Ground Condition: Normal
FS[10:42] NOTE: Weather Report
FS[10:42] Wind Heading: 342°
FS[10:42] Wind Speed: 0 knots
FS[10:42] OAT: 14° C
FS[10:42] TAT: 15° C
FS[10:42] Precipitation: None
FS[10:42] Dew Point: 4° C
FS[10:42] Visibility: 62 miles
FS[10:42] METAR: KALB 222351Z 32006KT 10SM FEW050 BKN130 BKN180 BKN250 23/13 A2990 RMK AO2 SLP123 T02280128 10289 20228 53007KALI 222353Z AUTO 14014G22KT 10SM CLR 33/22 A2981 RMK AO2 SLP091 T03330217 10389 20333 55001 $KALK 222356Z AUTO 22014G22KT 10SM BKN120 24/14 A3003 RMK AO2 PK WND 22030/2336 SLP076 T02440144 10339 20244 57003KALM 222355Z AUTO 19003KT 10SM CLR 34/08 A2993 RMK AO2 LTG DSNT SEKALN 222350Z 00000KT 10SM BKN075 BKN120 23/23 A2997KALO 222354Z 00000KT 10SM CLR 24/16 A3002 RMK AO2 SLP164 T02390156 10261 20228 53001KALS 222352Z AUTO 30018G30KT 10SM BKN110 22/03 A3019 RMK AO2 PK WND 31030/2328 LTG DSNT SW SLP148 T02170028 10267 20217 53005KALW 222353Z 19004KT 10SM CLR 27/07 A2992 RMK AO2 SLP125 T02720067 10272 20228 56014KALX 222355Z AUTO 22003KT 10SM CLR 30/22 A2999 RMK AO2 T03040215 10333 20304
FS[10:42] NOTE: Climb started
FS[10:42] Landing Gear: Retracted
FS[10:42] GS: 89 knots
FS[10:42] TAS: 91 knots
FS[10:42] IAS: 91 knots
FS[10:42] VS: 1094 fpm
FS[10:42] AGL: 43 ft
FS[10:42] AMSL: 216 ft
FS[10:42] View Mode: Spot Plane
FS[10:42] Autopilot: Engaged
FS[10:42] AGL: 220 ft
FS[10:42] AMSL: 393 ft
FS[10:44] NOTE: TOC reached
FS[10:44] NOTE: Cruise started
FS[10:44] GS: 165 knots
FS[10:44] TAS: 165 knots
FS[10:44] IAS: 160 knots
FS[10:44] VS: 199 fpm
FS[10:44] FOB: 779 lbs
FS[10:44] Heading: 187°
FS[10:44] Pitch: 0°
FS[10:44] Bank: -1°
FS[10:44] Aircraft Weight: 5439.36 lbs
FS[10:50] Recovery: Flight Saved
FS[10:58] Recovery: Flight Saved
FS[11:03] NOTE: TOD reached
FS[11:03] NOTE: Descent started
FS[11:03] GS: 190 knots
FS[11:03] TAS: 190 knots
FS[11:03] IAS: 186 knots
FS[11:03] VS: -681 fpm
FS[11:03] FOB: 708 lbs
FS[11:03] Heading: 180°
FS[11:03] Pitch: 2°
FS[11:03] Bank: 0°
FS[11:03] Aircraft Weight: 5368.01 lbs
FS[11:03] NOTE: On approach
FS[11:05] Recovery: Flight Saved
FS[11:13] Landing Gear: Extended
FS[11:13] GS: 126 knots
FS[11:13] TAS: 127 knots
FS[11:13] IAS: 126 knots
FS[11:13] VS: -565 fpm
FS[11:13] AGL: 856 ft
FS[11:13] AMSL: 915 ft
FS[11:14] Flaps: Position 1
FS[11:14] GS: 114 knots
FS[11:14] TAS: 115 knots
FS[11:14] IAS: 114 knots
FS[11:14] VS: -88 fpm
FS[11:14] Autopilot: Disengaged
FS[11:14] AGL: 722 ft
FS[11:14] AMSL: 777 ft
FS[11:14] Flaps: Position 2
FS[11:14] GS: 97 knots
FS[11:14] TAS: 98 knots
FS[11:14] IAS: 97 knots
FS[11:14] VS: -445 fpm
FS[11:15] Flaps: Position 4
FS[11:15] GS: 87 knots
FS[11:15] TAS: 88 knots
FS[11:15] IAS: 88 knots
FS[11:15] VS: -487 fpm
FS[11:16] NOTE: ----- LANDED -----
FS[11:16] Landing Rate: -101.50 fpm
FS[11:16] GS: 58 knots
FS[11:16] TAS: 58 knots
FS[11:16] IAS: 58 knots
FS[11:16] VS: -67 fpm
FS[11:16] FOB: 676 lbs
FS[11:16] Heading: 155°
FS[11:16] Pitch: 4°
FS[11:16] Bank: 0°
FS[11:16] Aircraft Weight: 5336.20 lbs
FS[11:16] Nearest Airport: KGX
FS[11:16] Distance: 0.32 miles
FS[11:16] Runway: 15 - KGX
FS[11:16] Ground Surface: Gravel
FS[11:16] Ground Condition: Normal
FS[11:16] NOTE: Weather Report
FS[11:16] Wind Heading: 343°
FS[11:16] Wind Speed: 0 knots
FS[11:16] OAT: 14° C
FS[11:16] TAT: 15° C
FS[11:16] Precipitation: None
FS[11:16] Dew Point: 4° C
FS[11:16] Visibility: 62 miles
FS[11:16] METAR: No METAR available for PANV.
FS[11:16] View Mode: Spot Plane
FS[11:16] Flaps: Position 0
FS[11:16] NOTE: Taxi started
FS[11:18] NOTE: Arrived
FS[11:18] Parking Brake: Engaged
FS[11:18] Main Door Open
FS[11:18] Main Door Closed
FS[11:19] Parking Brake: Released
FS[11:20] Landing Gear: Retracted
FS[11:20] GS: 95 knots
FS[11:20] TAS: 97 knots
FS[11:20] IAS: 97 knots
FS[11:20] VS: 1425 fpm
FS[11:20] AGL: 62 ft
FS[11:20] AMSL: 160 ft
FS[11:20] View Mode: Spot Plane
FS[11:20] Autopilot: Engaged
FS[11:20] AGL: 695 ft
FS[11:20] AMSL: 744 ft
FS[11:20] Flaps: Position 1
FS[11:20] GS: 103 knots
FS[11:20] TAS: 104 knots
FS[11:20] IAS: 103 knots
FS[11:20] VS: 1748 fpm
FS[11:22] COM1: 122.70
FS[11:25] Landing Gear: Extended
FS[11:25] GS: 118 knots
FS[11:25] TAS: 119 knots
FS[11:25] IAS: 118 knots
FS[11:25] VS: -124 fpm
FS[11:25] AGL: 518 ft
FS[11:25] AMSL: 990 ft
FS[11:26] Flaps: Position 2
FS[11:26] GS: 104 knots
FS[11:26] TAS: 106 knots
FS[11:26] IAS: 105 knots
FS[11:26] VS: 16 fpm
FS[11:26] Autopilot: Disengaged
FS[11:26] AGL: 925 ft
FS[11:26] AMSL: 980 ft
FS[11:27] Flaps: Position 3
FS[11:27] GS: 93 knots
FS[11:27] TAS: 93 knots
FS[11:27] IAS: 92 knots
FS[11:27] VS: -123 fpm
FS[11:28] Flaps: Position 4
FS[11:28] GS: 81 knots
FS[11:28] TAS: 82 knots
FS[11:28] IAS: 82 knots
FS[11:28] VS: -395 fpm
FS[11:29] NOTE: ----- LANDED -----
FS[11:29] Landing Rate: -236.84 fpm
FS[11:29] GS: 64 knots
FS[11:29] TAS: 64 knots
FS[11:29] IAS: 64 knots
FS[11:29] VS: -163 fpm
FS[11:29] FOB: 653 lbs
FS[11:29] Heading: 170°
FS[11:29] Pitch: 4°
FS[11:29] Bank: 0°
FS[11:29] Aircraft Weight: 5313.75 lbs
FS[11:29] Nearest Airport: PANV
FS[11:29] Distance: 0.22 miles
FS[11:29] Runway: 17 - PANV
FS[11:29] Ground Surface: Gravel
FS[11:29] Ground Condition: Normal
FS[11:29] NOTE: Weather Report
FS[11:29] Wind Heading: 343°
FS[11:29] Wind Speed: 0 knots
FS[11:29] OAT: 14° C
FS[11:29] TAT: 14° C
FS[11:29] Precipitation: None
FS[11:29] Dew Point: 4° C
FS[11:29] Visibility: 62 miles
FS[11:29] METAR: No METAR available for PANV.
FS[11:29] View Mode: Spot Plane
FS[11:29] Flaps: Position 0
FS[11:30] Parking Brake: Engaged
FS[11:30] Engine 1: Stopped
FS[11:30] Engine 2: Stopped
FS[11:31] Main Door Open
FS[11:31] Light Data: Navigation OFF
FS[11:31] Light Data: Beacon OFF
FS[11:31] Light Data: Landing lights OFF
FS[11:31] Light Data: Taxi lights OFF
FS[11:31] Light Data: Strobe lights OFF
FS[11:31] Light Data: Instrument lights OFF
FS[11:31] Light Data: Recognition lights OFF
FS[11:31] Light Data: Wing lights OFF
FS[11:31] Light Data: Logo lights OFF
FS[11:31] Light Data: Cabin lights OFF
FS[11:31] Main Door Closed
FS[11:32] FS: Paused
FS[11:32] Gate: n/a
FS[11:32] NOTE: Flight Completed
FS[11:32] FS Aircraft: AC500 N687AK
FS[11:32] FS Model: AC500
FS[11:32] FS Type: ROCKWELL
FS[11:32] FOB: 652 lbs
FS[11:32] Fuel Used: 137 lbs
FS[11:32] Flight Time: 00:51:24
FS[11:32] Flight Time (Dawn): 00:00:00
FS[11:32] Flight Time (Day): 00:51:24
FS[11:32] Flight Time (Dusk): 00:00:00
FS[11:32] Flight Time (Night): 00:00:00
FS[11:32] Total Landings: 2
FS[11:32] MaxSim Rate: 0x
FS[11:32] Cigar Box - 1.1.4.0
FS[11:32] ----- Flight Closed -----

Route Map